createdAt,value
2022-12-13T00:00:30.729Z,42.37
2022-12-13T00:02:57.406Z,42.28
2022-12-13T00:05:24.032Z,42.20
2022-12-13T00:07:50.715Z,39.40
2022-12-13T00:10:17.449Z,62.80
2022-12-13T00:12:44.218Z,52.10
2022-12-13T00:15:11.388Z,43.72
2022-12-13T00:17:38.243Z,42.77
2022-12-13T00:20:05.644Z,45.55
2022-12-13T00:22:32.315Z,44.03
2022-12-13T00:24:59.052Z,46.53
2022-12-13T00:27:25.930Z,48.90
2022-12-13T00:29:52.706Z,44.13
2022-12-13T00:32:19.367Z,46.83
2022-12-13T00:34:46.053Z,56.30
2022-12-13T00:37:12.877Z,53.35
2022-12-13T00:39:39.864Z,56.40
2022-12-13T00:42:06.823Z,61.93
2022-12-13T00:44:33.518Z,49.90
2022-12-13T00:47:00.171Z,48.83
2022-12-13T00:49:26.918Z,52.28
2022-12-13T00:51:53.605Z,47.23
2022-12-13T00:54:20.333Z,48.50
2022-12-13T00:56:47.054Z,48.40
2022-12-13T00:59:15.529Z,51.20
2022-12-13T01:01:42.550Z,48.37
2022-12-13T01:04:10.439Z,49.27
2022-12-13T01:06:41.876Z,50.57
2022-12-13T01:09:17.157Z,45.60
2022-12-13T01:11:44.830Z,44.37
2022-12-13T01:14:11.895Z,39.60
2022-12-13T01:16:38.829Z,39.67
2022-12-13T01:19:05.531Z,47.47
2022-12-13T01:21:32.322Z,46.10
2022-12-13T01:24:05.356Z,41.47
2022-12-13T01:26:32.778Z,49.37
2022-12-13T01:28:59.968Z,42.03
2022-12-13T01:31:27.530Z,39.27
2022-12-13T01:33:54.191Z,44.50
2022-12-13T01:36:27.584Z,47.37
2022-12-13T01:38:58.672Z,40.60
2022-12-13T01:41:27.344Z,43.13
2022-12-13T01:44:00.040Z,42.40
2022-12-13T01:46:27.218Z,41.03
2022-12-13T01:48:58.127Z,42.10
2022-12-13T01:51:32.072Z,44.90
2022-12-13T01:54:03.168Z,43.85
2022-12-13T01:56:36.926Z,45.67
2022-12-13T01:59:05.748Z,43.07
2022-12-13T02:01:32.938Z,41.90
2022-12-13T02:03:59.841Z,48.07
2022-12-13T02:06:36.479Z,44.40
2022-12-13T02:09:05.902Z,41.40
2022-12-13T02:11:35.314Z,49.67
2022-12-13T02:14:02.171Z,45.90
2022-12-13T02:16:55.488Z,53.83
2022-12-13T02:19:53.534Z,45.83
2022-12-13T02:22:46.228Z,45.37
2022-12-13T02:25:14.255Z,48.40
2022-12-13T02:27:42.624Z,51.53
2022-12-13T02:30:25.298Z,50.07
2022-12-13T02:33:08.595Z,46.10
2022-12-13T02:35:53.295Z,53.93
2022-12-13T02:38:38.058Z,44.00
2022-12-13T02:41:36.357Z,53.00
2022-12-13T02:44:23.970Z,47.63
2022-12-13T02:47:00.132Z,46.83
2022-12-13T02:51:59.367Z,46.90
2022-12-13T02:54:26.043Z,44.20
2022-12-13T02:57:00.706Z,52.27
2022-12-13T02:59:31.527Z,51.93
2022-12-13T03:02:10.107Z,49.40
2022-12-13T03:05:12.554Z,44.47
2022-12-13T03:07:49.791Z,47.80
2022-12-13T03:10:24.054Z,50.13
2022-12-13T03:13:06.016Z,39.07
2022-12-13T03:15:47.766Z,50.90
2022-12-13T03:18:21.439Z,45.37
2022-12-13T03:20:50.385Z,43.60
2022-12-13T03:23:19.842Z,48.63
2022-12-13T03:25:49.876Z,46.00
2022-12-13T03:28:16.792Z,39.23
2022-12-13T03:30:43.660Z,44.07
2022-12-13T03:33:13.641Z,39.80
2022-12-13T03:35:44.775Z,43.90
2022-12-13T03:38:22.027Z,47.23
2022-12-13T03:40:53.655Z,50.37
2022-12-13T03:43:22.059Z,53.40
2022-12-13T03:45:49.317Z,39.97
2022-12-13T03:48:22.629Z,50.47
2022-12-13T03:50:52.238Z,56.97
2022-12-13T03:53:23.368Z,52.47
2022-12-13T03:56:02.453Z,46.10
2022-12-13T03:58:35.696Z,45.93
2022-12-13T04:01:05.722Z,46.00
2022-12-13T04:03:32.392Z,42.73
2022-12-13T04:05:59.081Z,43.53
2022-12-13T04:08:25.824Z,41.30
2022-12-13T04:10:52.587Z,42.90
2022-12-13T04:13:34.553Z,41.40
2022-12-13T04:16:02.689Z,40.13
2022-12-13T04:18:29.931Z,45.17
2022-12-13T04:20:58.177Z,48.07
2022-12-13T04:23:24.801Z,42.63
2022-12-13T04:25:52.875Z,52.77
2022-12-13T04:28:22.830Z,45.37
2022-12-13T04:30:53.012Z,42.23
2022-12-13T04:33:22.428Z,46.97
2022-12-13T04:35:50.315Z,46.80
2022-12-13T04:38:17.427Z,47.90
2022-12-13T04:40:44.139Z,52.47
2022-12-13T04:43:11.118Z,42.73
2022-12-13T04:45:37.810Z,53.87
2022-12-13T04:48:04.910Z,50.50
2022-12-13T04:50:31.532Z,51.13
2022-12-13T04:52:58.214Z,43.70
2022-12-13T04:55:24.902Z,47.47
2022-12-13T04:57:51.585Z,42.47
2022-12-13T05:00:18.318Z,50.17
2022-12-13T05:02:44.994Z,46.90
2022-12-13T05:05:12.238Z,53.30
2022-12-13T05:07:41.840Z,43.83
2022-12-13T05:10:11.093Z,46.47
2022-12-13T05:12:37.845Z,46.23
2022-12-13T05:15:05.360Z,52.53
2022-12-13T05:17:32.115Z,47.07
2022-12-13T05:19:58.771Z,56.10
2022-12-13T05:22:25.516Z,39.27
2022-12-13T05:24:52.252Z,43.00
2022-12-13T05:27:25.130Z,50.47
2022-12-13T05:30:02.752Z,42.40
2022-12-13T05:32:42.550Z,40.13
2022-12-13T05:35:12.825Z,35.10
2022-12-13T05:37:39.632Z,39.93
2022-12-13T05:40:06.962Z,35.47
2022-12-13T05:42:33.656Z,43.63
2022-12-13T05:45:00.330Z,42.87
2022-12-13T05:47:26.983Z,42.30
2022-12-13T05:49:53.739Z,40.37
2022-12-13T05:52:22.312Z,50.87
2022-12-13T05:55:00.963Z,41.53
2022-12-13T05:57:28.119Z,39.60
2022-12-13T05:59:55.116Z,38.07
2022-12-13T06:02:22.221Z,35.87
2022-12-13T06:04:49.164Z,52.73
2022-12-13T06:07:15.849Z,37.37
2022-12-13T06:09:43.681Z,42.90
2022-12-13T06:12:12.667Z,39.70
2022-12-13T06:15:00.870Z,41.03
2022-12-13T06:17:36.847Z,40.87
2022-12-13T06:20:24.451Z,41.58
2022-12-13T06:22:53.270Z,35.83
2022-12-13T06:25:30.582Z,45.23
2022-12-13T06:28:00.968Z,40.13
2022-12-13T06:30:29.615Z,40.03
2022-12-13T06:32:57.021Z,39.77
2022-12-13T06:35:28.748Z,38.23
2022-12-13T06:38:01.148Z,41.20
2022-12-13T06:40:30.761Z,35.40
2022-12-13T06:42:57.953Z,42.43
2022-12-13T06:45:26.963Z,48.37
2022-12-13T06:47:53.721Z,42.77
2022-12-13T06:50:20.390Z,47.53
2022-12-13T06:52:47.461Z,36.43
2022-12-13T06:55:14.557Z,36.40
2022-12-13T06:57:41.782Z,35.97
2022-12-13T07:00:10.186Z,36.13
2022-12-13T07:02:38.451Z,40.60
2022-12-13T07:05:06.219Z,40.40
2022-12-13T07:07:32.920Z,37.63
2022-12-13T07:09:59.747Z,37.97
2022-12-13T07:12:26.612Z,39.20
2022-12-13T07:14:53.315Z,40.03
2022-12-13T07:17:32.641Z,51.87
2022-12-13T07:20:08.452Z,46.83
2022-12-13T07:22:39.893Z,58.47
2022-12-13T07:25:27.170Z,46.83
2022-12-13T07:28:02.274Z,49.00
2022-12-13T07:30:31.516Z,32.87
2022-12-13T07:32:58.266Z,35.00
2022-12-13T07:35:28.164Z,35.63
2022-12-13T07:37:54.981Z,36.00
2022-12-13T07:40:21.658Z,35.57
2022-12-13T07:42:51.550Z,43.47
2022-12-13T07:45:18.676Z,43.57
2022-12-13T07:47:45.565Z,40.37
2022-12-13T07:50:24.222Z,40.47
2022-12-13T07:52:53.514Z,37.47
2022-12-13T07:55:23.274Z,37.20
2022-12-13T07:58:06.307Z,48.93
2022-12-13T08:00:33.294Z,43.60
2022-12-13T08:03:01.969Z,45.63
2022-12-13T08:05:29.310Z,45.20
2022-12-13T08:08:07.805Z,46.13
2022-12-13T08:10:34.520Z,36.38
2022-12-13T08:13:03.194Z,46.70
2022-12-13T08:15:30.581Z,48.85
2022-12-13T08:17:57.974Z,42.63
2022-12-13T08:20:24.671Z,35.75
2022-12-13T08:22:56.020Z,34.33
2022-12-13T08:25:29.619Z,30.48
2022-12-13T08:28:01.482Z,31.75
2022-12-13T08:30:30.590Z,35.70
2022-12-13T08:32:57.685Z,32.35
2022-12-13T08:35:33.773Z,38.58
2022-12-13T08:38:01.182Z,29.90
2022-12-13T08:40:28.011Z,26.45
2022-12-13T08:42:56.086Z,39.83
2022-12-13T08:45:24.252Z,37.35
2022-12-13T08:47:50.919Z,35.70
2022-12-13T08:50:17.725Z,36.88
2022-12-13T08:52:45.260Z,32.42
2022-12-13T08:55:14.428Z,30.10
2022-12-13T08:57:42.514Z,34.55
2022-12-13T09:00:14.065Z,35.08
2022-12-13T09:02:40.910Z,33.58
2022-12-13T09:05:09.196Z,33.72
2022-12-13T09:07:36.965Z,33.45
2022-12-13T09:10:07.283Z,32.92
2022-12-13T09:12:52.300Z,31.58
2022-12-13T09:15:34.278Z,33.35
2022-12-13T09:18:04.118Z,38.38
2022-12-13T09:20:32.333Z,32.78
2022-12-13T09:23:14.244Z,29.77
2022-12-13T09:26:05.912Z,38.55
2022-12-13T09:28:34.868Z,32.30
2022-12-13T09:31:02.008Z,34.08
2022-12-13T09:33:30.598Z,31.58
2022-12-13T09:35:57.955Z,31.52
2022-12-13T09:38:24.660Z,39.92
2022-12-13T09:40:59.195Z,40.00
2022-12-13T09:43:33.521Z,34.80
2022-12-13T09:46:22.932Z,33.25
2022-12-13T09:49:01.601Z,29.75
2022-12-13T09:51:41.490Z,28.15
2022-12-13T09:54:21.184Z,36.13
2022-12-13T09:56:51.177Z,29.33
2022-12-13T09:59:23.954Z,36.22
2022-12-13T10:01:50.696Z,32.10
2022-12-13T10:04:18.268Z,33.40
2022-12-13T10:06:44.946Z,31.08
2022-12-13T10:09:14.269Z,31.52
2022-12-13T10:11:56.542Z,30.92
2022-12-13T10:14:31.457Z,38.58
2022-12-13T10:17:02.709Z,33.58
2022-12-13T10:19:36.844Z,36.20
2022-12-13T10:22:06.113Z,30.75
2022-12-13T10:24:48.311Z,33.75
2022-12-13T10:27:18.153Z,28.08
2022-12-13T10:30:00.291Z,36.88
2022-12-13T10:32:28.092Z,31.38
2022-12-13T10:34:55.439Z,31.65
2022-12-13T10:37:23.113Z,29.27
2022-12-13T10:39:50.339Z,30.98
2022-12-13T10:42:23.704Z,34.42
2022-12-13T10:45:14.245Z,29.25
2022-12-13T10:47:44.709Z,30.73
2022-12-13T10:50:28.637Z,26.20
2022-12-13T10:52:57.662Z,31.73
2022-12-13T10:55:25.944Z,32.45
2022-12-13T10:57:55.520Z,30.92
2022-12-13T11:00:38.019Z,30.02
2022-12-13T11:03:05.826Z,35.58
2022-12-13T11:05:35.176Z,31.30
2022-12-13T11:08:27.109Z,30.55
2022-12-13T11:10:59.241Z,32.47
2022-12-13T11:13:35.005Z,29.73
2022-12-13T11:16:02.871Z,30.65
2022-12-13T11:18:37.458Z,27.52
2022-12-13T11:21:07.958Z,40.40
2022-12-13T11:23:39.704Z,33.67
2022-12-13T11:26:10.679Z,28.23
2022-12-13T11:29:07.551Z,26.73
2022-12-13T11:31:36.299Z,39.13
2022-12-13T11:34:18.199Z,32.20
2022-12-13T11:36:54.192Z,33.63
2022-12-13T11:39:33.134Z,31.25
2022-12-13T11:42:22.625Z,36.63
2022-12-13T11:45:11.755Z,30.27
2022-12-13T11:48:02.232Z,37.08
2022-12-13T11:50:34.575Z,38.92
2022-12-13T11:53:19.035Z,32.95
2022-12-13T11:55:54.633Z,32.05
2022-12-13T12:01:38.216Z,33.45
2022-12-13T12:04:29.666Z,35.20
2022-12-13T12:07:24.606Z,50.38
2022-12-13T12:09:58.181Z,31.25
2022-12-13T12:12:33.682Z,35.90
2022-12-13T12:15:26.521Z,32.00
2022-12-13T12:17:55.762Z,41.22
2022-12-13T12:20:37.309Z,35.40
2022-12-13T12:23:20.985Z,32.40
2022-12-13T12:25:57.953Z,35.78
2022-12-13T12:28:44.198Z,35.45
2022-12-13T12:31:29.796Z,34.00
2022-12-13T12:34:10.243Z,35.58
2022-12-13T12:36:52.222Z,32.35
2022-12-13T12:39:20.113Z,40.00
2022-12-13T12:42:18.846Z,32.47
2022-12-13T12:45:10.680Z,41.13
2022-12-13T12:50:59.761Z,31.05
2022-12-13T12:53:43.474Z,31.58
2022-12-13T12:56:41.267Z,37.53
2022-12-13T12:59:36.969Z,31.38
2022-12-13T13:02:16.162Z,34.28
2022-12-13T13:04:48.774Z,32.88
2022-12-13T13:07:24.107Z,26.52
2022-12-13T13:09:54.803Z,29.30
2022-12-13T13:12:29.536Z,32.15
2022-12-13T13:14:57.962Z,32.13
2022-12-13T13:17:24.670Z,34.63
2022-12-13T13:20:23.417Z,28.58
2022-12-13T13:23:10.258Z,25.45
2022-12-13T13:25:54.316Z,25.58
2022-12-13T13:31:09.265Z,28.70
2022-12-13T13:33:44.501Z,34.58
2022-12-13T13:36:46.862Z,25.65
2022-12-13T13:39:34.424Z,27.45
2022-12-13T13:42:09.914Z,31.50
2022-12-13T13:44:51.921Z,32.17
2022-12-13T13:47:19.611Z,28.10
2022-12-13T13:50:21.105Z,25.70
2022-12-13T13:53:04.201Z,28.52
2022-12-13T13:55:48.345Z,26.90
2022-12-13T13:58:45.652Z,25.95
2022-12-13T14:01:27.796Z,25.27
2022-12-13T14:04:31.750Z,27.20
2022-12-13T14:07:14.745Z,34.38
2022-12-13T14:10:08.154Z,31.70
2022-12-13T14:12:35.866Z,27.38
2022-12-13T14:15:42.369Z,26.00
2022-12-13T14:18:46.782Z,29.75
2022-12-13T14:21:29.818Z,30.08
2022-12-13T14:24:24.875Z,27.35
2022-12-13T14:27:24.341Z,28.50
2022-12-13T14:29:58.342Z,28.00
2022-12-13T14:32:29.374Z,28.75
2022-12-13T14:34:59.759Z,23.52
2022-12-13T14:37:56.673Z,35.53
2022-12-13T14:40:28.271Z,46.28
2022-12-13T14:42:55.061Z,47.28
2022-12-13T14:45:25.080Z,33.10
2022-12-13T14:47:54.592Z,34.70
2022-12-13T14:50:21.952Z,30.65
2022-12-13T14:52:50.602Z,37.30
2022-12-13T14:55:30.398Z,34.97
2022-12-13T14:57:59.666Z,41.63
2022-12-13T15:00:28.578Z,26.92
2022-12-13T15:02:59.951Z,37.00
2022-12-13T15:05:29.516Z,39.97
2022-12-13T15:07:56.641Z,30.33
2022-12-13T15:10:30.102Z,33.15
2022-12-13T15:12:57.092Z,46.50
2022-12-13T15:15:31.342Z,35.08
2022-12-13T15:18:17.320Z,37.08
2022-12-13T15:20:45.552Z,36.57
2022-12-13T15:23:31.394Z,36.55
2022-12-13T15:26:03.473Z,38.30
2022-12-13T15:28:35.297Z,35.65
2022-12-13T15:31:04.321Z,46.08
2022-12-13T15:33:35.435Z,40.97
2022-12-13T15:36:15.622Z,42.92
2022-12-13T15:38:58.739Z,35.38
2022-12-13T15:41:29.634Z,34.08
2022-12-13T15:44:00.547Z,44.15
2022-12-13T15:46:30.850Z,44.72
2022-12-13T15:49:01.171Z,40.28
2022-12-13T15:51:28.711Z,52.90
2022-12-13T15:54:20.000Z,45.88
2022-12-13T15:57:17.646Z,40.17
2022-12-13T15:59:44.854Z,43.85
2022-12-13T16:02:15.242Z,43.20
2022-12-13T16:04:42.075Z,40.90
2022-12-13T16:07:22.735Z,49.03
2022-12-13T16:09:50.686Z,50.75
2022-12-13T16:12:24.859Z,42.10
2022-12-13T16:14:52.021Z,43.30
2022-12-13T16:17:25.126Z,39.38
2022-12-13T16:19:54.116Z,36.95
2022-12-13T16:22:23.824Z,40.08
2022-12-13T16:24:52.820Z,40.53
2022-12-13T16:27:19.511Z,43.38
2022-12-13T16:29:46.129Z,43.50
2022-12-13T16:32:12.855Z,55.25
2022-12-13T16:34:39.721Z,53.87
2022-12-13T16:37:08.817Z,46.03
2022-12-13T16:39:52.581Z,42.83
2022-12-13T16:42:19.653Z,47.95
2022-12-13T16:44:48.132Z,45.70
2022-12-13T16:47:22.371Z,36.00
2022-12-13T16:49:53.816Z,20.63
2022-12-13T16:52:22.054Z,16.75
2022-12-13T16:54:48.876Z,16.88
2022-12-13T16:57:15.541Z,20.50
2022-12-13T16:59:42.202Z,15.02
2022-12-13T17:02:17.834Z,19.13
2022-12-13T17:04:44.732Z,18.35
2022-12-13T17:07:11.417Z,17.85
2022-12-13T17:09:39.107Z,26.42
2022-12-13T17:12:06.044Z,19.55
2022-12-13T17:14:32.722Z,19.52
2022-12-13T17:16:59.469Z,18.83
2022-12-13T17:19:26.285Z,16.63
2022-12-13T17:21:53.408Z,15.75
2022-12-13T17:24:20.123Z,17.35
2022-12-13T17:26:53.814Z,14.63
2022-12-13T17:29:21.983Z,20.58
2022-12-13T17:31:48.683Z,17.83
2022-12-13T17:34:15.574Z,17.33
2022-12-13T17:36:43.612Z,16.08
2022-12-13T17:39:12.219Z,19.05
2022-12-13T17:41:39.113Z,21.30
2022-12-13T17:44:06.183Z,18.00
2022-12-13T17:46:34.737Z,16.60
2022-12-13T17:49:02.170Z,24.83
2022-12-13T17:51:29.505Z,19.10
2022-12-13T17:53:56.226Z,17.13
2022-12-13T17:56:22.889Z,19.17
2022-12-13T17:58:49.680Z,16.23
2022-12-13T18:01:17.700Z,22.17
2022-12-13T18:03:45.003Z,16.13
2022-12-13T18:06:12.217Z,21.23
2022-12-13T18:08:40.605Z,18.90
2022-12-13T18:14:06.142Z,17.82
2022-12-13T18:16:37.439Z,20.55
2022-12-13T18:19:07.373Z,23.67
2022-12-13T18:21:35.615Z,20.17
2022-12-13T18:24:02.505Z,21.42
2022-12-13T18:26:29.400Z,21.27
2022-12-13T18:28:56.220Z,20.15
2022-12-13T18:31:24.627Z,18.73
2022-12-13T18:33:53.451Z,20.13
2022-12-13T18:36:22.182Z,18.45
2022-12-13T18:38:49.064Z,16.85
2022-12-13T18:41:18.396Z,24.23
2022-12-13T18:43:45.906Z,17.10
2022-12-13T18:46:14.639Z,23.83
2022-12-13T18:48:41.916Z,18.80
2022-12-13T18:51:09.784Z,20.90
2022-12-13T18:53:37.824Z,15.45
2022-12-13T18:56:10.438Z,22.27
2022-12-13T18:58:41.873Z,19.10
2022-12-13T19:01:11.794Z,23.83
2022-12-13T19:03:38.975Z,16.02
2022-12-13T19:06:07.080Z,18.63
2022-12-13T19:08:36.595Z,14.93
2022-12-13T19:11:03.860Z,19.52
2022-12-13T19:13:32.269Z,18.35
2022-12-13T19:16:06.260Z,16.77
2022-12-13T19:18:33.624Z,17.67
2022-12-13T19:21:00.339Z,16.50
2022-12-13T19:23:30.461Z,22.42
2022-12-13T19:25:58.328Z,17.80
2022-12-13T19:28:24.957Z,15.98
2022-12-13T19:30:52.143Z,19.10
2022-12-13T19:33:19.407Z,22.65
2022-12-13T19:35:48.912Z,16.95
2022-12-13T19:38:15.576Z,17.65
2022-12-13T19:40:47.018Z,20.88
2022-12-13T19:43:13.720Z,18.40
2022-12-13T19:45:45.558Z,17.67
2022-12-13T19:48:13.055Z,23.35
2022-12-13T19:50:40.365Z,18.77
2022-12-13T19:53:08.065Z,23.35
2022-12-13T19:55:35.046Z,18.20
2022-12-13T19:58:02.132Z,19.65
2022-12-13T20:00:28.875Z,19.05
2022-12-13T20:02:55.851Z,18.25
2022-12-13T20:05:22.572Z,18.40
2022-12-13T20:07:49.925Z,17.75
2022-12-13T20:10:16.695Z,19.42
2022-12-13T20:12:43.387Z,21.20
2022-12-13T20:15:10.403Z,19.92
2022-12-13T20:17:37.104Z,23.75
2022-12-13T20:20:05.364Z,21.83
2022-12-13T20:22:33.233Z,19.45
2022-12-13T20:24:59.893Z,20.23
2022-12-13T20:27:27.112Z,18.52
2022-12-13T20:29:53.834Z,17.58
2022-12-13T20:32:21.365Z,19.15
2022-12-13T20:34:54.346Z,20.15
2022-12-13T20:37:21.623Z,18.77
2022-12-13T20:39:48.330Z,18.83
2022-12-13T20:42:17.484Z,25.45
2022-12-13T20:44:44.789Z,21.73
2022-12-13T20:47:11.544Z,20.13
2022-12-13T20:49:38.266Z,20.48
2022-12-13T20:52:05.290Z,17.35
2022-12-13T20:54:32.016Z,19.33
2022-12-13T20:56:58.668Z,21.42
2022-12-13T20:59:25.431Z,16.52
2022-12-13T21:01:52.501Z,16.33
2022-12-13T21:04:19.306Z,17.30
2022-12-13T21:06:45.946Z,24.95
2022-12-13T21:09:12.938Z,17.50
2022-12-13T21:11:40.743Z,21.88
2022-12-13T21:14:11.154Z,21.52
2022-12-13T21:16:43.432Z,26.05
2022-12-13T21:19:12.986Z,20.10
2022-12-13T21:21:39.685Z,28.83
2022-12-13T21:24:06.690Z,26.40
2022-12-13T21:26:36.157Z,29.88
2022-12-13T21:29:06.717Z,24.35
2022-12-13T21:31:35.369Z,25.88
2022-12-13T21:34:02.494Z,28.02
2022-12-13T21:36:33.601Z,24.40
2022-12-13T21:39:02.537Z,29.60
2022-12-13T21:41:29.686Z,26.75
2022-12-13T21:43:56.477Z,26.75
2022-12-13T21:46:35.737Z,21.25
2022-12-13T21:49:12.171Z,24.60
2022-12-13T21:51:42.151Z,20.13
2022-12-13T21:54:12.837Z,26.00
2022-12-13T21:56:54.875Z,20.75
2022-12-13T21:59:24.356Z,30.65
2022-12-13T22:02:10.043Z,27.73
2022-12-13T22:04:38.591Z,29.50
2022-12-13T22:07:07.233Z,23.65
2022-12-13T22:09:36.013Z,25.65
2022-12-13T22:12:06.566Z,29.75
2022-12-13T22:14:33.210Z,31.38
2022-12-13T22:16:59.893Z,32.13
2022-12-13T22:19:28.051Z,28.50
2022-12-13T22:21:54.718Z,31.17
2022-12-13T22:24:21.486Z,28.73
2022-12-13T22:26:48.109Z,27.67
2022-12-13T22:29:15.279Z,30.00
2022-12-13T22:31:42.105Z,27.45
2022-12-13T22:34:09.076Z,31.65
2022-12-13T22:36:35.771Z,28.83
2022-12-13T22:39:03.869Z,28.33
2022-12-13T22:41:30.594Z,32.60
2022-12-13T22:43:58.691Z,28.88
2022-12-13T22:46:26.661Z,31.73
2022-12-13T22:48:53.776Z,30.70
2022-12-13T22:51:20.534Z,25.77
2022-12-13T22:53:48.460Z,30.65
2022-12-13T22:56:19.644Z,28.77
2022-12-13T22:58:46.728Z,30.63
2022-12-13T23:01:16.854Z,31.60
2022-12-13T23:03:45.109Z,28.90
2022-12-13T23:06:13.370Z,30.73
2022-12-13T23:08:43.572Z,30.65
2022-12-13T23:11:27.438Z,34.75
2022-12-13T23:13:55.830Z,34.90
2022-12-13T23:16:25.141Z,30.05
2022-12-13T23:19:05.254Z,45.58
2022-12-13T23:24:09.691Z,34.45
2022-12-13T23:26:37.161Z,32.47
2022-12-13T23:29:08.029Z,38.30
2022-12-13T23:31:38.705Z,34.47
2022-12-13T23:34:06.664Z,37.40
2022-12-13T23:36:34.168Z,41.35
2022-12-13T23:39:02.600Z,36.78
2022-12-13T23:41:34.434Z,37.63
2022-12-13T23:44:01.161Z,37.50
2022-12-13T23:46:31.723Z,38.80
2022-12-13T23:49:01.595Z,35.47
2022-12-13T23:51:28.896Z,36.75
2022-12-13T23:53:55.713Z,32.05
2022-12-13T23:56:23.552Z,39.17
2022-12-13T23:58:50.953Z,37.60
